Time;durP1;ratioP1;P1;durP2;ratioP2;P2;SDS_P1;SDS_P2;PMS_P1;PMS_P2;Temp;Humidity;BMP_temperature;BMP_pressure;BME280_temperature;BME280_humidity;BME280_pressure;Samples;Min_cycle;Max_cycle;Signal;HPM_P1;HPM_P2
2022/04/14 00:00:38;;;;;;;7.75;5.30;;;11.50;99.90;;;;;;4981884;28;20043;-67
2022/04/14 00:03:03;;;;;;;11.77;5.38;;;11.50;99.90;;;;;;4967628;28;20059;-67
2022/04/14 00:05:29;;;;;;;10.32;5.53;;;11.50;99.90;;;;;;4962647;28;20043;-67
2022/04/14 00:07:54;;;;;;;8.38;5.45;;;11.40;99.90;;;;;;4970552;28;20071;-67
2022/04/14 00:10:20;;;;;;;6.90;5.47;;;11.40;99.90;;;;;;4968519;28;20042;-67
2022/04/14 00:12:48;;;;;;;8.93;5.22;;;11.50;99.90;;;;;;4964355;28;20592;-67
2022/04/14 00:15:13;;;;;;;12.23;5.68;;;11.40;99.90;;;;;;4970687;28;20058;-67
2022/04/14 00:17:39;;;;;;;9.77;4.82;;;11.40;99.90;;;;;;4973595;28;20046;-67
2022/04/14 00:20:07;;;;;;;7.88;5.90;;;11.40;99.90;;;;;;4970476;28;20058;-67
2022/04/14 00:22:34;;;;;;;10.02;6.30;;;11.40;99.90;;;;;;4967120;28;20065;-67
2022/04/14 00:24:59;;;;;;;11.82;5.57;;;11.40;99.90;;;;;;4971525;28;20095;-67
2022/04/14 00:27:25;;;;;;;13.70;6.68;;;11.50;99.90;;;;;;4970959;28;20508;-67
2022/04/14 00:29:50;;;;;;;11.35;7.05;;;11.50;99.90;;;;;;4948676;28;20051;-67
2022/04/14 00:32:17;;;;;;;9.82;5.88;;;11.40;99.90;;;;;;4970039;28;20400;-67
2022/04/14 00:34:42;;;;;;;10.70;5.55;;;11.40;99.90;;;;;;4970311;28;20035;-67
2022/04/14 00:37:11;;;;;;;7.60;5.95;;;11.40;99.90;;;;;;4972011;28;20046;-67
2022/04/14 00:39:37;;;;;;;10.63;5.57;;;11.50;99.90;;;;;;4971472;28;20511;-67
2022/04/14 00:42:13;;;;;;;11.07;5.50;;;11.50;99.90;;;;;;4968437;28;20049;-67
2022/04/14 00:44:39;;;;;;;7.93;4.95;;;11.50;99.90;;;;;;4970025;28;20097;-67
2022/04/14 00:47:06;;;;;;;8.07;5.55;;;11.50;99.90;;;;;;4971475;28;20078;-67
2022/04/14 00:49:32;;;;;;;9.25;5.65;;;11.50;99.90;;;;;;4972585;28;20046;-67
2022/04/14 00:52:02;;;;;;;6.95;5.40;;;11.40;99.90;;;;;;4971108;28;20042;-67
2022/04/14 00:54:30;;;;;;;11.57;6.43;;;11.40;99.90;;;;;;4972273;28;20505;-67
2022/04/14 00:57:00;;;;;;;13.10;7.10;;;11.40;99.90;;;;;;4969484;28;20987;-67
2022/04/14 00:59:26;;;;;;;9.90;6.88;;;11.40;99.90;;;;;;4967333;28;20122;-67
2022/04/14 01:01:53;;;;;;;7.97;6.85;;;11.40;99.90;;;;;;4970136;28;20201;-67
2022/04/14 01:04:19;;;;;;;9.88;5.95;;;11.40;99.90;;;;;;4971587;28;20085;-67
2022/04/14 01:06:45;;;;;;;10.63;6.70;;;11.30;99.90;;;;;;4971330;28;20043;-67
2022/04/14 01:09:19;;;;;;;7.85;5.80;;;11.30;99.90;;;;;;4971833;28;20173;-67
2022/04/14 01:11:52;;;;;;;9.23;4.55;;;11.30;99.90;;;;;;4968880;28;20050;-67
2022/04/14 01:14:33;;;;;;;9.38;5.20;;;11.30;99.90;;;;;;4969164;28;20104;-67
2022/04/14 01:17:04;;;;;;;7.03;4.65;;;11.20;99.90;;;;;;4969883;28;20613;-67
2022/04/14 01:19:30;;;;;;;8.75;5.63;;;11.20;99.90;;;;;;4971284;28;20047;-67
2022/04/14 01:22:25;;;;;;;6.22;4.72;;;11.10;99.90;;;;;;4969317;28;20046;-67
2022/04/14 01:24:55;;;;;;;11.75;6.78;;;11.10;99.90;;;;;;4962942;28;20050;-67
2022/04/14 01:27:25;;;;;;;6.15;5.53;;;11.00;99.90;;;;;;4965392;28;20573;-67
2022/04/14 01:29:51;;;;;;;8.00;5.40;;;11.10;99.90;;;;;;4969883;28;20079;-67
2022/04/14 01:32:21;;;;;;;9.10;6.22;;;11.00;99.90;;;;;;4967386;28;20093;-67
2022/04/14 01:34:47;;;;;;;8.43;3.90;;;10.90;99.90;;;;;;4968832;28;20085;-67
2022/04/14 01:37:12;;;;;;;6.18;4.38;;;10.90;99.90;;;;;;4971647;28;20047;-67
2022/04/14 01:39:39;;;;;;;5.85;5.25;;;10.80;99.90;;;;;;4971803;28;20416;-67
2022/04/14 01:42:05;;;;;;;12.50;8.32;;;10.80;99.90;;;;;;4969823;28;20559;-67
2022/04/14 01:44:31;;;;;;;7.90;6.45;;;10.70;99.90;;;;;;4969257;28;20497;-67
2022/04/14 01:46:56;;;;;;;10.07;4.85;;;10.80;99.90;;;;;;4966099;28;20105;-67
2022/04/14 01:49:22;;;;;;;8.80;4.72;;;10.70;99.90;;;;;;4967825;28;20042;-67
2022/04/14 01:51:48;;;;;;;9.02;4.85;;;10.70;99.90;;;;;;4970409;28;20062;-67
2022/04/14 01:54:14;;;;;;;8.20;6.15;;;10.70;99.90;;;;;;4969440;28;20023;-67
2022/04/14 01:56:41;;;;;;;10.77;7.20;;;10.60;99.90;;;;;;4979763;28;20642;-67
2022/04/14 01:59:07;;;;;;;7.88;6.20;;;10.50;99.90;;;;;;4966765;28;20059;-67
2022/04/14 02:01:33;;;;;;;11.90;7.90;;;10.60;99.90;;;;;;4970103;28;20046;-67
2022/04/14 02:03:59;;;;;;;14.75;9.02;;;10.60;99.90;;;;;;4965163;28;20039;-67
2022/04/14 02:06:24;;;;;;;8.98;8.07;;;10.50;99.90;;;;;;4971921;28;20066;-67
2022/04/14 02:08:50;;;;;;;10.20;7.72;;;10.60;99.90;;;;;;4968817;28;20042;-67
2022/04/14 02:11:16;;;;;;;12.68;9.90;;;10.50;99.90;;;;;;4960526;28;20035;-67
2022/04/14 02:13:43;;;;;;;13.80;9.82;;;10.50;99.90;;;;;;4965918;28;21606;-67
2022/04/14 02:16:08;;;;;;;12.85;10.38;;;10.50;99.90;;;;;;4970957;28;20066;-67
2022/04/14 02:18:34;;;;;;;11.82;10.63;;;10.50;99.90;;;;;;4968829;28;20054;-67
2022/04/14 02:21:00;;;;;;;15.90;11.02;;;10.50;99.90;;;;;;4984878;28;20401;-66
2022/04/14 02:23:26;;;;;;;15.10;11.98;;;10.50;99.90;;;;;;4969420;28;20027;-67
2022/04/14 02:25:51;;;;;;;13.48;11.05;;;10.50;99.90;;;;;;4968081;28;20043;-67
2022/04/14 02:28:17;;;;;;;15.93;11.23;;;10.40;99.90;;;;;;4966197;28;20102;-67
2022/04/14 02:30:43;;;;;;;18.10;12.40;;;10.40;99.90;;;;;;4982913;28;20073;-67
2022/04/14 02:33:08;;;;;;;14.90;13.07;;;10.50;99.90;;;;;;4968539;28;20153;-67
2022/04/14 02:35:34;;;;;;;16.60;12.63;;;10.50;99.90;;;;;;4966629;28;20043;-67
2022/04/14 02:38:00;;;;;;;13.70;11.85;;;10.40;99.90;;;;;;4967810;28;20038;-67
2022/04/14 02:40:26;;;;;;;16.88;13.05;;;10.50;99.90;;;;;;4984695;28;20043;-66
2022/04/14 02:42:56;;;;;;;14.52;11.88;;;10.40;99.90;;;;;;4967827;28;20054;-66
2022/04/14 02:45:23;;;;;;;15.43;11.57;;;10.30;99.90;;;;;;4966173;28;20074;-67
2022/04/14 02:47:48;;;;;;;12.20;8.07;;;10.40;99.90;;;;;;4964543;28;20051;-67
2022/04/14 02:50:14;;;;;;;12.15;8.93;;;10.30;99.90;;;;;;4966939;28;20042;-67
2022/04/14 02:52:40;;;;;;;17.63;10.30;;;10.30;99.90;;;;;;4969615;28;20050;-67
2022/04/14 02:55:06;;;;;;;11.77;10.32;;;10.30;99.90;;;;;;4966690;28;20105;-67
2022/04/14 02:57:32;;;;;;;15.52;11.82;;;10.30;99.90;;;;;;4969912;28;20142;-67
2022/04/14 02:59:58;;;;;;;20.17;14.25;;;10.30;99.90;;;;;;4966510;28;20577;-67
2022/04/14 03:02:24;;;;;;;18.23;13.95;;;10.30;99.90;;;;;;4982858;28;20066;-67
2022/04/14 03:04:49;;;;;;;18.55;13.35;;;10.20;99.90;;;;;;4967013;28;20039;-67
2022/04/14 03:07:15;;;;;;;13.55;11.68;;;10.20;99.90;;;;;;4984413;28;20049;-67
2022/04/14 03:09:41;;;;;;;12.02;10.82;;;10.10;99.90;;;;;;4969530;28;20039;-67
2022/04/14 03:12:07;;;;;;;14.85;12.68;;;10.10;99.90;;;;;;4971090;28;20513;-67
2022/04/14 03:14:33;;;;;;;17.52;14.02;;;10.20;99.90;;;;;;4967873;28;20100;-67
2022/04/14 03:16:59;;;;;;;14.55;12.88;;;10.10;99.90;;;;;;4965645;28;20129;-67
2022/04/14 03:19:25;;;;;;;15.73;13.90;;;10.10;99.90;;;;;;4966945;28;20065;-67
2022/04/14 03:21:50;;;;;;;19.25;15.23;;;10.10;99.90;;;;;;4969796;28;20057;-67
2022/04/14 03:24:16;;;;;;;18.20;15.10;;;10.10;99.90;;;;;;4967275;28;20035;-67
2022/04/14 03:26:42;;;;;;;17.98;13.70;;;10.10;99.90;;;;;;4968588;28;20073;-67
2022/04/14 03:29:08;;;;;;;19.88;14.95;;;10.00;99.90;;;;;;4965586;28;20821;-67
2022/04/14 03:31:33;;;;;;;22.00;13.68;;;10.00;99.90;;;;;;4967828;28;20039;-67
2022/04/14 03:33:59;;;;;;;17.80;14.75;;;10.00;99.90;;;;;;4983162;28;20038;-67
2022/04/14 03:36:25;;;;;;;13.70;10.93;;;10.00;99.90;;;;;;4968928;28;20094;-67
2022/04/14 03:38:50;;;;;;;11.77;10.57;;;10.00;99.90;;;;;;4964268;28;20039;-67
2022/04/14 03:41:16;;;;;;;14.00;10.35;;;9.90;99.90;;;;;;4965953;28;20137;-67
2022/04/14 03:43:42;;;;;;;14.43;11.32;;;9.90;99.90;;;;;;4965997;28;20143;-67
2022/04/14 03:46:08;;;;;;;9.98;7.80;;;9.90;99.90;;;;;;4983048;28;20058;-66
2022/04/14 03:48:34;;;;;;;12.48;10.52;;;9.90;99.90;;;;;;4964401;28;20057;-67
2022/04/14 03:51:00;;;;;;;13.52;11.40;;;9.80;99.90;;;;;;4979779;28;20675;-67
2022/04/14 03:53:26;;;;;;;29.50;16.63;;;9.80;99.90;;;;;;4981669;28;20045;-66
2022/04/14 03:55:51;;;;;;;20.92;14.27;;;9.80;99.90;;;;;;4965963;28;20034;-66
2022/04/14 03:58:17;;;;;;;11.23;9.20;;;9.80;99.90;;;;;;4968170;28;20094;-67
2022/04/14 04:00:44;;;;;;;22.20;14.15;;;9.70;99.90;;;;;;4982038;28;20049;-67
2022/04/14 04:03:11;;;;;;;16.10;10.60;;;9.70;99.90;;;;;;4965346;28;20082;-67
2022/04/14 04:05:37;;;;;;;7.25;6.20;;;9.60;99.90;;;;;;4964430;28;20058;-67
2022/04/14 04:08:06;;;;;;;27.48;16.25;;;9.60;99.90;;;;;;4967879;28;20049;-67
2022/04/14 04:10:32;;;;;;;25.42;17.27;;;9.60;99.90;;;;;;4967554;28;20074;-67
2022/04/14 04:12:57;;;;;;;30.17;17.60;;;9.60;99.90;;;;;;4967005;28;20051;-67
2022/04/14 04:15:23;;;;;;;21.70;13.30;;;9.60;99.90;;;;;;4968472;28;20460;-67
2022/04/14 04:17:51;;;;;;;21.88;13.77;;;9.50;99.90;;;;;;4982353;28;20046;-67
2022/04/14 04:20:17;;;;;;;20.63;15.10;;;9.50;99.90;;;;;;4982976;28;20051;-67
2022/04/14 04:22:44;;;;;;;27.10;18.25;;;9.40;99.90;;;;;;4966995;28;20059;-67
2022/04/14 04:25:10;;;;;;;20.42;17.55;;;9.40;99.90;;;;;;4966760;28;20057;-67
2022/04/14 04:27:36;;;;;;;19.70;16.10;;;9.40;99.90;;;;;;4967806;28;20385;-67
2022/04/14 04:30:03;;;;;;;19.85;15.95;;;9.40;99.90;;;;;;4965755;28;20065;-67
2022/04/14 04:32:33;;;;;;;19.48;16.55;;;9.30;99.90;;;;;;4967086;28;20037;-67
2022/04/14 04:35:03;;;;;;;21.75;18.10;;;9.20;99.90;;;;;;4965566;28;20066;-67
2022/04/14 04:37:29;;;;;;;38.97;17.63;;;9.20;99.90;;;;;;4965205;28;20519;-67
2022/04/14 04:39:55;;;;;;;18.33;16.48;;;9.10;99.90;;;;;;4982234;28;20042;-67
2022/04/14 04:42:21;;;;;;;28.30;17.55;;;9.10;99.90;;;;;;4969042;28;20416;-66
2022/04/14 04:44:46;;;;;;;19.25;17.15;;;9.20;99.90;;;;;;4978514;28;20042;-67
2022/04/14 04:47:12;;;;;;;15.73;14.20;;;9.10;99.90;;;;;;4969077;28;20165;-67
2022/04/14 04:49:37;;;;;;;15.25;13.65;;;9.00;99.90;;;;;;4979526;28;20058;-67
2022/04/14 04:52:03;;;;;;;18.02;15.13;;;9.00;99.90;;;;;;4968838;28;20565;-67
2022/04/14 04:54:29;;;;;;;20.95;15.73;;;9.00;99.90;;;;;;4965245;28;20409;-66
2022/04/14 04:56:55;;;;;;;16.98;14.70;;;9.00;99.90;;;;;;4967931;28;20046;-67
2022/04/14 04:59:21;;;;;;;25.08;14.80;;;9.00;99.90;;;;;;4965734;28;20047;-66
2022/04/14 05:01:46;;;;;;;20.50;16.77;;;9.00;99.90;;;;;;4967937;28;20042;-67
2022/04/14 05:04:12;;;;;;;12.57;10.25;;;9.00;99.90;;;;;;4967288;28;20038;-67
2022/04/14 05:06:38;;;;;;;9.07;8.15;;;9.00;99.90;;;;;;4969618;28;20051;-67
2022/04/14 05:09:04;;;;;;;13.48;7.75;;;9.00;99.90;;;;;;4966703;28;20035;-66
2022/04/14 05:11:30;;;;;;;14.68;9.38;;;8.90;99.90;;;;;;4985449;28;20825;-66
2022/04/14 05:13:55;;;;;;;9.57;6.55;;;8.90;99.90;;;;;;4971265;28;20043;-66
2022/04/14 05:16:21;;;;;;;17.05;12.45;;;8.90;99.90;;;;;;4970827;28;20488;-67
2022/04/14 05:18:47;;;;;;;10.15;8.95;;;9.00;99.90;;;;;;4969161;28;20134;-67
2022/04/14 05:21:13;;;;;;;12.15;9.90;;;9.00;99.90;;;;;;4969738;28;20679;-67
2022/04/14 05:23:39;;;;;;;23.75;18.73;;;9.10;99.90;;;;;;4964405;28;20043;-67
2022/04/14 05:26:05;;;;;;;29.05;20.33;;;9.20;99.90;;;;;;4968584;28;20031;-67
2022/04/14 05:28:30;;;;;;;28.50;20.00;;;9.70;99.90;;;;;;4965864;28;20129;-67
2022/04/14 05:30:56;;;;;;;19.42;17.15;;;10.10;99.90;;;;;;4967391;28;20042;-67
2022/04/14 05:33:22;;;;;;;23.38;15.10;;;10.60;99.90;;;;;;4968652;28;20046;-66
2022/04/14 05:35:48;;;;;;;19.13;14.98;;;11.40;99.90;;;;;;4954690;28;20117;-67
2022/04/14 05:38:14;;;;;;;15.98;14.27;;;12.10;99.90;;;;;;4968097;28;21839;-67
2022/04/14 05:40:45;;;;;;;15.40;13.85;;;13.00;99.90;;;;;;4969303;28;20081;-67
2022/04/14 05:43:19;;;;;;;26.20;13.50;;;13.90;99.90;;;;;;4962043;28;20054;-67
2022/04/14 05:45:47;;;;;;;17.27;12.88;;;14.90;99.90;;;;;;4966145;28;20662;-67
2022/04/14 05:48:14;;;;;;;16.85;12.57;;;15.80;99.90;;;;;;4963839;28;20046;-67
2022/04/14 05:50:41;;;;;;;13.85;11.90;;;16.60;99.90;;;;;;4983207;28;20050;-67
2022/04/14 05:53:06;;;;;;;16.60;11.90;;;17.50;99.90;;;;;;4964000;28;20035;-68
2022/04/14 05:55:32;;;;;;;13.77;12.32;;;18.30;99.90;;;;;;4962730;28;20038;-67
2022/04/14 05:57:58;;;;;;;18.63;13.40;;;19.20;99.90;;;;;;4963943;28;20109;-68
2022/04/14 06:00:24;;;;;;;16.40;14.65;;;19.90;99.90;;;;;;4960355;28;20055;-67
2022/04/14 06:02:49;;;;;;;17.17;13.85;;;20.50;98.10;;;;;;4957172;28;20054;-68
2022/04/14 06:05:15;;;;;;;14.98;13.43;;;21.20;96.70;;;;;;4955141;28;20050;-68
2022/04/14 06:07:41;;;;;;;18.42;14.43;;;21.90;93.00;;;;;;4956498;28;20054;-68
2022/04/14 06:10:07;;;;;;;23.48;16.10;;;22.70;90.80;;;;;;4958283;28;20039;-68
2022/04/14 06:12:32;;;;;;;16.55;14.82;;;23.50;83.60;;;;;;4958250;28;20039;-68
2022/04/14 06:14:58;;;;;;;18.77;16.50;;;24.00;77.20;;;;;;4954473;28;20056;-68
2022/04/14 06:17:24;;;;;;;17.88;16.17;;;24.70;73.70;;;;;;4962352;28;20053;-68
2022/04/14 06:19:50;;;;;;;23.10;18.65;;;25.20;70.60;;;;;;4966198;28;20050;-68
2022/04/14 06:22:15;;;;;;;18.58;16.67;;;26.10;67.10;;;;;;4962821;28;20145;-68
2022/04/14 06:24:41;;;;;;;20.48;18.13;;;26.30;63.80;;;;;;4963913;28;20434;-68
2022/04/14 06:27:07;;;;;;;19.85;17.38;;;26.90;61.60;;;;;;4963793;28;20062;-68
2022/04/14 06:29:33;;;;;;;19.90;17.80;;;27.40;59.80;;;;;;4966850;28;20118;-68
2022/04/14 06:31:58;;;;;;;21.13;18.52;;;27.90;58.00;;;;;;4965424;28;20035;-68
2022/04/14 06:34:24;;;;;;;19.88;17.90;;;28.60;55.60;;;;;;4966496;28;20038;-69
2022/04/14 06:36:50;;;;;;;21.65;19.48;;;28.80;52.90;;;;;;4964010;28;20511;-68
2022/04/14 06:39:15;;;;;;;23.50;18.38;;;29.00;51.60;;;;;;4965774;28;20042;-69
2022/04/14 06:41:41;;;;;;;20.42;18.10;;;28.70;52.00;;;;;;4963670;28;21024;-69
2022/04/14 06:44:07;;;;;;;23.27;18.35;;;28.50;52.90;;;;;;4963195;28;20544;-69
2022/04/14 06:46:33;;;;;;;21.23;18.88;;;28.00;53.50;;;;;;4960800;28;20046;-68
2022/04/14 06:48:59;;;;;;;21.00;18.13;;;27.20;54.10;;;;;;4964511;28;20086;-68
2022/04/14 06:51:24;;;;;;;19.85;17.65;;;26.60;56.00;;;;;;4960605;28;20038;-68
2022/04/14 06:53:50;;;;;;;21.08;17.73;;;25.90;57.90;;;;;;4964774;28;20039;-68
2022/04/14 06:56:15;;;;;;;20.70;17.63;;;25.30;59.50;;;;;;4962612;28;20512;-68
2022/04/14 06:58:42;;;;;;;19.35;16.90;;;24.90;61.00;;;;;;4964890;28;20498;-69
2022/04/14 07:01:08;;;;;;;18.77;16.50;;;24.40;62.80;;;;;;4963740;28;20077;-69
2022/04/14 07:03:35;;;;;;;18.77;15.98;;;24.00;63.90;;;;;;4962901;28;20049;-68
2022/04/14 07:06:00;;;;;;;17.45;15.70;;;23.70;64.80;;;;;;4980997;28;20046;-68
2022/04/14 07:08:27;;;;;;;23.38;15.35;;;23.40;66.50;;;;;;4982018;28;20042;-68
2022/04/14 07:10:53;;;;;;;17.15;14.82;;;23.20;67.40;;;;;;4948609;28;20046;-68
2022/04/14 07:13:19;;;;;;;16.88;14.85;;;23.00;68.20;;;;;;4954480;28;20054;-68
2022/04/14 07:15:45;;;;;;;17.20;15.23;;;22.80;69.60;;;;;;4956302;28;20043;-68
2022/04/14 07:18:11;;;;;;;16.17;14.27;;;22.60;71.50;;;;;;4954220;28;20523;-68
2022/04/14 07:20:37;;;;;;;17.70;15.68;;;22.50;72.40;;;;;;4955956;28;20089;-68
2022/04/14 07:23:03;;;;;;;17.85;13.18;;;22.30;71.40;;;;;;4951877;28;20125;-68
2022/04/14 07:25:32;;;;;;;15.20;13.48;;;21.90;73.00;;;;;;4953214;28;20141;-68
2022/04/14 07:27:59;;;;;;;15.63;13.70;;;21.50;73.30;;;;;;4952204;28;20046;-68
2022/04/14 07:30:26;;;;;;;15.57;13.13;;;21.10;76.00;;;;;;4955680;28;20055;-69
2022/04/14 07:32:53;;;;;;;14.48;12.38;;;20.60;77.60;;;;;;4954408;28;20122;-69
2022/04/14 07:35:22;;;;;;;16.38;13.15;;;20.20;81.30;;;;;;4955910;28;20092;-69
2022/04/14 07:37:49;;;;;;;16.27;13.52;;;20.10;84.00;;;;;;4953737;28;20125;-68
2022/04/14 07:40:15;;;;;;;20.05;14.75;;;19.60;89.00;;;;;;4970521;28;20133;-69
2022/04/14 07:42:43;;;;;;;15.52;13.93;;;19.50;91.90;;;;;;4952825;28;20048;-69
2022/04/14 07:45:10;;;;;;;18.08;13.70;;;19.20;93.60;;;;;;4953650;28;20062;-68
2022/04/14 07:47:36;;;;;;;14.18;12.38;;;19.00;94.30;;;;;;4952379;28;20046;-68
2022/04/14 07:50:03;;;;;;;15.32;12.88;;;18.70;96.20;;;;;;4952613;28;20039;-69
2022/04/14 07:52:30;;;;;;;14.43;12.48;;;18.70;97.10;;;;;;4956707;28;20062;-68
2022/04/14 07:54:55;;;;;;;16.75;12.93;;;18.70;98.00;;;;;;4955486;28;20710;-69
2022/04/14 07:57:21;;;;;;;18.08;12.10;;;18.80;97.80;;;;;;4954161;28;20122;-68
2022/04/14 07:59:47;;;;;;;11.18;10.07;;;18.90;97.50;;;;;;4958117;28;20054;-68
2022/04/14 08:02:12;;;;;;;13.55;11.52;;;18.90;95.40;;;;;;4938778;28;20501;-68
2022/04/14 08:04:38;;;;;;;17.15;15.25;;;18.90;96.40;;;;;;4954852;28;20060;-68
2022/04/14 08:07:05;;;;;;;17.30;15.40;;;18.90;99.10;;;;;;4950766;28;20050;-69
2022/04/14 08:09:31;;;;;;;16.00;14.15;;;18.90;99.50;;;;;;4954130;28;20097;-68
2022/04/14 08:11:57;;;;;;;14.55;12.70;;;19.10;99.90;;;;;;4957822;28;20185;-68
2022/04/14 08:14:22;;;;;;;12.77;11.45;;;19.30;99.90;;;;;;4957014;28;20117;-68
2022/04/14 08:16:48;;;;;;;10.90;9.77;;;19.60;99.90;;;;;;4955900;28;20077;-68
2022/04/14 08:19:14;;;;;;;11.70;8.38;;;19.90;99.50;;;;;;4952526;28;20057;-68
2022/04/14 08:21:39;;;;;;;29.52;10.75;;;20.20;97.80;;;;;;4951755;28;20580;-68
2022/04/14 08:24:06;;;;;;;10.07;9.05;;;20.40;96.60;;;;;;4956213;28;20065;-68
2022/04/14 08:26:32;;;;;;;10.80;8.23;;;20.70;96.40;;;;;;4954667;28;20065;-68
2022/04/14 08:28:59;;;;;;;8.68;7.72;;;20.80;93.60;;;;;;4953516;28;20043;-69
2022/04/14 08:31:26;;;;;;;8.93;8.13;;;20.90;93.50;;;;;;4954877;28;20049;-69
2022/04/14 08:33:52;;;;;;;10.00;9.00;;;21.10;92.10;;;;;;4952870;28;20053;-69
2022/04/14 08:36:19;;;;;;;9.50;8.25;;;21.20;91.30;;;;;;4957552;28;20054;-69
2022/04/14 08:38:47;;;;;;;11.15;7.82;;;21.30;88.30;;;;;;4956555;28;20039;-69
2022/04/14 08:41:23;;;;;;;9.93;8.77;;;21.10;88.50;;;;;;4956839;28;20657;-69
2022/04/14 08:44:03;;;;;;;9.82;8.57;;;20.90;85.70;;;;;;4956199;28;20678;-69
2022/04/14 08:46:29;;;;;;;11.05;9.57;;;20.80;90.50;;;;;;4958923;28;20035;-69
2022/04/14 08:48:59;;;;;;;10.95;9.18;;;20.90;90.20;;;;;;4954547;28;20053;-69
2022/04/14 08:51:33;;;;;;;10.27;9.02;;;21.10;91.30;;;;;;4957436;28;20042;-69
2022/04/14 08:53:59;;;;;;;12.43;9.45;;;21.30;91.70;;;;;;4955937;28;20374;-69
2022/04/14 08:56:25;;;;;;;12.18;10.15;;;21.50;90.70;;;;;;4956059;28;20723;-67
2022/04/14 08:58:55;;;;;;;14.20;8.43;;;21.70;89.50;;;;;;4958286;28;20596;-72
2022/04/14 09:01:21;;;;;;;11.20;9.70;;;21.70;86.50;;;;;;4955957;28;20772;-72
2022/04/14 09:03:47;;;;;;;10.52;9.50;;;21.60;83.10;;;;;;4955853;28;20041;-72
2022/04/14 09:06:13;;;;;;;10.82;9.73;;;21.60;84.70;;;;;;4958603;28;20100;-72
2022/04/14 09:08:40;;;;;;;14.40;10.13;;;21.60;84.30;;;;;;4956485;28;20047;-72
2022/04/14 09:11:08;;;;;;;11.95;10.82;;;21.60;86.00;;;;;;4958536;28;20047;-72
2022/04/14 09:13:37;;;;;;;10.88;9.88;;;21.60;86.20;;;;;;4970838;28;20546;-72
2022/04/14 09:16:03;;;;;;;11.00;9.68;;;21.70;85.40;;;;;;4957172;28;20085;-72
2022/04/14 09:18:30;;;;;;;25.10;12.35;;;21.70;82.10;;;;;;4957428;28;20137;-72
2022/04/14 09:21:06;;;;;;;9.80;8.90;;;21.70;78.10;;;;;;4956690;28;20046;-72
2022/04/14 09:23:32;;;;;;;9.95;8.57;;;21.60;82.20;;;;;;4959986;28;20058;-72
2022/04/14 09:26:04;;;;;;;9.43;8.52;;;21.70;83.30;;;;;;4956091;28;21111;-72
2022/04/14 09:28:30;;;;;;;9.75;8.77;;;21.70;80.90;;;;;;4957855;28;20049;-72
2022/04/14 09:31:03;;;;;;;10.40;9.00;;;21.70;79.80;;;;;;4957660;28;20045;-72
2022/04/14 09:33:34;;;;;;;8.98;8.07;;;21.70;82.60;;;;;;4959198;28;20039;-72
2022/04/14 09:36:17;;;;;;;10.70;9.55;;;21.80;81.10;;;;;;4956123;28;20045;-72
2022/04/14 09:39:02;;;;;;;11.95;8.93;;;21.70;79.80;;;;;;4957067;28;20046;-72
2022/04/14 09:41:41;;;;;;;10.18;9.18;;;21.80;79.30;;;;;;4958817;28;20049;-72
2022/04/14 09:44:08;;;;;;;9.07;8.18;;;21.80;79.50;;;;;;4952703;28;20055;-72
2022/04/14 09:46:35;;;;;;;13.60;8.73;;;21.80;78.60;;;;;;4953923;28;20089;-72
2022/04/14 09:49:09;;;;;;;10.73;7.63;;;21.30;78.90;;;;;;4957259;28;20038;-72
2022/04/14 09:51:37;;;;;;;9.18;6.75;;;21.40;80.50;;;;;;4955979;28;20046;-72
2022/04/14 09:54:17;;;;;;;10.00;7.03;;;21.20;79.60;;;;;;4957579;28;20046;-72
2022/04/14 09:56:47;;;;;;;6.55;5.78;;;21.10;79.50;;;;;;4958286;28;20518;-72
2022/04/14 09:59:18;;;;;;;7.78;5.78;;;21.10;82.20;;;;;;4954683;28;20449;-72
2022/04/14 10:01:45;;;;;;;8.23;6.93;;;21.10;81.00;;;;;;4954337;28;20043;-72
2022/04/14 10:04:31;;;;;;;7.38;5.85;;;21.10;79.90;;;;;;4955677;28;20069;-72
2022/04/14 10:07:10;;;;;;;6.68;4.72;;;20.90;79.50;;;;;;4957303;28;21463;-72
2022/04/14 10:09:40;;;;;;;6.47;5.25;;;20.90;80.20;;;;;;4960898;28;20042;-72
2022/04/14 10:12:18;;;;;;;9.90;5.70;;;20.80;80.50;;;;;;4964215;28;20043;-72
2022/04/14 10:14:58;;;;;;;6.80;5.18;;;21.00;83.30;;;;;;4958764;28;20042;-72
2022/04/14 10:17:29;;;;;;;9.20;4.45;;;21.20;83.20;;;;;;4976730;28;20051;-72
2022/04/14 10:19:54;;;;;;;8.38;5.28;;;21.40;82.00;;;;;;4977650;28;20050;-72
2022/04/14 10:22:20;;;;;;;6.95;4.80;;;21.30;81.50;;;;;;4959689;28;20057;-72
2022/04/14 10:24:46;;;;;;;5.55;4.40;;;21.40;84.10;;;;;;4963911;28;20051;-72
2022/04/14 10:27:14;;;;;;;6.15;4.38;;;21.30;77.00;;;;;;4962479;28;20131;-72
2022/04/14 10:29:41;;;;;;;6.28;4.15;;;21.10;77.80;;;;;;4978419;28;20038;-72
2022/04/14 10:32:07;;;;;;;10.43;5.05;;;20.90;79.10;;;;;;4961529;28;20038;-72
2022/04/14 10:34:34;;;;;;;11.30;7.07;;;21.00;81.00;;;;;;4964657;28;20524;-72
2022/04/14 10:37:02;;;;;;;11.73;7.13;;;21.20;81.60;;;;;;4964334;28;20047;-72
2022/04/14 10:39:31;;;;;;;8.23;5.82;;;21.40;84.10;;;;;;4966846;28;20105;-72
2022/04/14 10:42:00;;;;;;;7.65;5.75;;;21.40;80.40;;;;;;4968310;28;20433;-72
2022/04/14 10:44:44;;;;;;;9.35;6.03;;;21.20;79.70;;;;;;4965087;28;20161;-72
2022/04/14 10:47:10;;;;;;;7.72;6.43;;;21.00;80.20;;;;;;4963297;28;20073;-72
2022/04/14 10:49:40;;;;;;;6.90;4.63;;;20.70;80.80;;;;;;4968704;28;20078;-71
2022/04/14 10:52:26;;;;;;;8.38;4.57;;;20.30;78.90;;;;;;4967615;28;20077;-72
2022/04/14 10:55:02;;;;;;;6.20;4.07;;;20.20;84.20;;;;;;4963499;28;20039;-71
2022/04/14 10:57:41;;;;;;;6.15;3.65;;;20.30;84.00;;;;;;4963191;28;20138;-72
2022/04/14 11:00:19;;;;;;;5.55;2.95;;;20.50;83.20;;;;;;4962600;28;20457;-71
2022/04/14 11:03:04;;;;;;;4.38;2.70;;;20.60;84.00;;;;;;4966981;28;20035;-72
2022/04/14 11:05:48;;;;;;;4.57;2.50;;;20.80;80.30;;;;;;4967291;28;20045;-72
2022/04/14 11:08:27;;;;;;;6.43;1.00;;;20.90;81.40;;;;;;4966681;28;20038;-72
2022/04/14 11:11:08;;;;;;;3.38;1.05;;;21.00;73.50;;;;;;4968953;28;20067;-72
2022/04/14 11:13:55;;;;;;;6.10;1.92;;;21.00;72.60;;;;;;4970185;28;20145;-72
2022/04/14 11:16:42;;;;;;;6.32;2.33;;;20.80;73.70;;;;;;4983009;28;20113;-72
2022/04/14 11:19:20;;;;;;;3.92;1.77;;;20.80;79.40;;;;;;4967430;28;20034;-72
2022/04/14 11:22:08;;;;;;;4.40;1.88;;;20.90;75.30;;;;;;4966120;28;20074;-72
2022/04/14 11:24:36;;;;;;;7.13;2.40;;;20.80;73.80;;;;;;4967599;28;20405;-72
2022/04/14 11:27:14;;;;;;;5.18;2.97;;;20.90;76.80;;;;;;4966518;28;20118;-72
2022/04/14 11:29:57;;;;;;;3.38;2.35;;;21.10;76.30;;;;;;4962719;28;20058;-72
2022/04/14 11:32:40;;;;;;;4.25;3.30;;;21.30;79.50;;;;;;4966060;28;20039;-72
2022/04/14 11:35:16;;;;;;;5.13;2.78;;;21.50;81.00;;;;;;4950661;28;20439;-72
2022/04/14 11:37:46;;;;;;;5.03;3.28;;;21.20;73.00;;;;;;4964840;28;20046;-72
2022/04/14 11:40:21;;;;;;;15.30;3.33;;;20.90;75.80;;;;;;4966582;28;20042;-72
2022/04/14 11:42:57;;;;;;;6.53;2.30;;;20.70;77.20;;;;;;4980454;28;20049;-72
2022/04/14 11:45:24;;;;;;;4.18;2.33;;;20.60;80.70;;;;;;4967578;28;20037;-72
2022/04/14 11:47:52;;;;;;;11.10;3.05;;;20.80;84.00;;;;;;4965234;28;20039;-72
2022/04/14 11:50:25;;;;;;;7.55;2.88;;;20.50;77.80;;;;;;4964867;28;20494;-72
2022/04/14 11:53:04;;;;;;;5.60;1.83;;;20.50;80.00;;;;;;4965777;28;20066;-72
2022/04/14 11:55:40;;;;;;;3.15;1.58;;;20.30;81.00;;;;;;4966243;28;20039;-72
2022/04/14 11:58:10;;;;;;;4.70;2.17;;;20.10;78.80;;;;;;4965750;28;20039;-72
2022/04/14 12:00:43;;;;;;;5.05;2.08;;;20.10;78.10;;;;;;4979317;28;20074;-72
2022/04/14 12:03:09;;;;;;;5.55;1.73;;;20.10;83.70;;;;;;4980971;28;20456;-72
2022/04/14 12:05:34;;;;;;;7.53;2.58;;;20.20;85.00;;;;;;4965553;28;20042;-72
2022/04/14 12:08:10;;;;;;;6.25;2.92;;;20.20;77.70;;;;;;4966551;28;20493;-72
2022/04/14 12:10:37;;;;;;;4.40;2.00;;;19.90;81.80;;;;;;4970331;28;20031;-72
2022/04/14 12:13:10;;;;;;;5.07;1.77;;;19.90;83.30;;;;;;4964502;28;20057;-72
2022/04/14 12:15:36;;;;;;;6.10;1.92;;;20.00;84.90;;;;;;4970475;28;20032;-72
2022/04/14 12:18:12;;;;;;;5.38;1.48;;;20.30;85.60;;;;;;4984514;28;20054;-72
2022/04/14 12:20:40;;;;;;;;;;;20.60;83.70;;;;;;4971024;28;20062;-72
2022/04/14 12:23:12;;;;;;;7.25;2.30;;;20.70;81.30;;;;;;4970209;28;20417;-72
2022/04/14 12:25:40;;;;;;;2.90;1.60;;;20.70;80.80;;;;;;4967866;28;20236;-72
2022/04/14 12:28:06;;;;;;;5.88;1.38;;;20.90;82.20;;;;;;4970527;28;20042;-72
2022/04/14 12:30:32;;;;;;;5.25;1.70;;;21.00;78.10;;;;;;4969188;28;20064;-72
2022/04/14 12:33:03;;;;;;;5.50;1.85;;;20.90;79.30;;;;;;4986118;28;20061;-72
2022/04/14 12:35:30;;;;;;;4.35;1.17;;;20.80;79.60;;;;;;4968246;28;21711;-72
2022/04/14 12:38:28;;;;;;;5.65;1.45;;;21.00;79.60;;;;;;4969247;28;20097;-72
2022/04/14 12:40:55;;;;;;;2.88;1.10;;;21.10;79.40;;;;;;4967880;28;20125;-72
2022/04/14 12:43:31;;;;;;;4.47;1.55;;;21.30;78.30;;;;;;4970991;28;20461;-72